Arundel, Maine
Current Conditions -  °F | °C
As of 1:55 PM on Friday 28 Nov 2014 (Local Time) from KSFM Reporting Station
Overcast Overcast  
Wind Chill: 22°   Ceiling: 3900
Heat Index: 32°   Visibility: 10mi
Dew Point: 18°   Wind: 14mph
Humidity: 55%   Direction: 290°WNW
Pressure: 30.02"   Gusts: 20mph
Location:  43.4079°N, 70.4735°W
Report Text: KSFM 281855Z AUTO 29012G17KT 10SM BKN039 OVC045 00/M08 A3002 RMK AO1
Loading
Personal Weather Stations






























Interactive Weather Map New forecast layout! Learn more

10-Day Weather Forecast

Advertisements
Track Severe Weather on mobile